createdAt,value
2022-11-14T00:01:46.493Z,5.61
2022-11-14T00:06:54.330Z,5.61
2022-11-14T00:12:01.676Z,5.61
2022-11-14T00:17:08.676Z,5.61
2022-11-14T00:22:15.672Z,5.60
2022-11-14T00:27:22.562Z,5.55
2022-11-14T00:32:29.617Z,5.52
2022-11-14T00:37:36.986Z,5.54
2022-11-14T00:42:45.015Z,5.48
2022-11-14T00:47:52.115Z,5.36
2022-11-14T00:52:59.044Z,5.31
2022-11-14T00:58:06.118Z,5.30
2022-11-14T01:03:11.581Z,5.29
2022-11-14T01:08:20.124Z,5.22
2022-11-14T01:13:27.859Z,5.19
2022-11-14T01:18:35.654Z,5.21
2022-11-14T01:23:42.799Z,5.28
2022-11-14T01:28:48.321Z,5.33
2022-11-14T01:33:56.319Z,5.35
2022-11-14T01:39:03.245Z,5.35
2022-11-14T01:44:17.105Z,5.33
2022-11-14T01:49:27.637Z,5.28
2022-11-14T01:54:37.624Z,5.26
2022-11-14T01:59:50.615Z,5.27
2022-11-14T02:05:02.081Z,5.29
2022-11-14T02:10:12.379Z,5.26
2022-11-14T02:15:19.974Z,5.24
2022-11-14T02:20:29.686Z,5.25
2022-11-14T02:25:36.947Z,5.26
2022-11-14T02:30:43.959Z,5.25
2022-11-14T02:35:51.051Z,5.25
2022-11-14T02:40:56.408Z,5.28
2022-11-14T02:46:05.812Z,5.29
2022-11-14T02:51:13.096Z,5.26
2022-11-14T02:56:20.506Z,5.25
2022-11-14T03:01:27.597Z,5.23
2022-11-14T03:06:33.163Z,5.14
2022-11-14T03:11:41.463Z,5.07
2022-11-14T03:16:48.384Z,5.06
2022-11-14T03:21:55.350Z,5.04
2022-11-14T03:27:02.388Z,5.02
2022-11-14T03:32:07.928Z,5.04
2022-11-14T03:37:14.963Z,5.08
2022-11-14T03:42:21.968Z,5.06
2022-11-14T03:47:27.650Z,5.01
2022-11-14T03:52:34.660Z,5.00
2022-11-14T03:57:41.852Z,5.00
2022-11-14T04:02:49.116Z,5.07
2022-11-14T04:07:54.630Z,5.14
2022-11-14T04:13:01.638Z,5.16
2022-11-14T04:18:08.576Z,5.11
2022-11-14T04:23:15.688Z,5.09
2022-11-14T04:28:22.836Z,5.09
2022-11-14T04:33:28.646Z,5.11
2022-11-14T04:38:35.711Z,5.14
2022-11-14T04:43:46.725Z,5.06
2022-11-14T04:48:56.871Z,5.03
2022-11-14T04:54:02.332Z,5.05
2022-11-14T04:59:09.663Z,5.10
2022-11-14T05:04:16.740Z,5.12
2022-11-14T05:09:22.273Z,5.11
2022-11-14T05:14:29.327Z,5.07
2022-11-14T05:19:36.426Z,5.02
2022-11-14T05:24:43.726Z,5.00
2022-11-14T05:29:50.726Z,5.01
2022-11-14T05:34:57.833Z,5.02
2022-11-14T05:40:03.221Z,5.04
2022-11-14T05:45:12.749Z,5.04
2022-11-14T05:50:19.845Z,5.04
2022-11-14T05:55:25.650Z,4.99
2022-11-14T06:00:39.644Z,4.94
2022-11-14T06:05:49.445Z,4.92
2022-11-14T06:10:56.328Z,4.95
2022-11-14T06:16:05.070Z,4.96
2022-11-14T06:21:15.074Z,4.97
2022-11-14T06:26:27.641Z,5.00
2022-11-14T06:31:34.475Z,5.04
2022-11-14T06:36:41.331Z,5.09
2022-11-14T06:41:48.381Z,5.08
2022-11-14T06:46:56.723Z,5.00
2022-11-14T06:52:03.855Z,4.99
2022-11-14T06:57:09.317Z,5.01
2022-11-14T07:02:21.696Z,5.02
2022-11-14T07:07:29.216Z,4.99
2022-11-14T07:12:34.675Z,4.90
2022-11-14T07:17:41.606Z,4.83
2022-11-14T07:22:49.706Z,4.77
2022-11-14T07:27:58.288Z,4.77
2022-11-14T07:33:05.169Z,4.77
2022-11-14T07:38:12.351Z,4.79
2022-11-14T07:43:17.723Z,4.82
2022-11-14T07:48:24.664Z,4.87
2022-11-14T07:53:32.281Z,4.88
2022-11-14T07:58:40.655Z,4.86
2022-11-14T08:03:47.966Z,4.92
2022-11-14T08:08:53.365Z,4.95
2022-11-14T08:14:00.322Z,4.99
2022-11-14T08:19:07.521Z,5.04
2022-11-14T08:24:14.416Z,5.08
2022-11-14T08:29:21.444Z,5.07
2022-11-14T08:34:29.418Z,5.01
2022-11-14T08:39:36.267Z,4.94
2022-11-14T08:44:46.679Z,4.95
2022-11-14T08:49:56.243Z,4.98
2022-11-14T08:55:03.382Z,5.03
2022-11-14T09:00:10.176Z,5.07
2022-11-14T09:05:17.506Z,5.12
2022-11-14T09:10:24.715Z,5.13
2022-11-14T09:15:32.053Z,5.11
2022-11-14T09:20:40.479Z,5.11
2022-11-14T09:25:47.735Z,5.16
2022-11-14T09:30:54.958Z,5.23
2022-11-14T09:36:03.409Z,5.27
2022-11-14T09:41:24.860Z,5.35
2022-11-14T09:46:38.710Z,5.42
2022-11-14T09:51:51.295Z,5.46
2022-11-14T09:56:58.502Z,5.47
2022-11-14T10:02:16.902Z,5.46
2022-11-14T10:07:35.995Z,5.43
2022-11-14T10:12:56.493Z,5.41
2022-11-14T10:18:20.011Z,5.37
2022-11-14T10:23:38.180Z,5.39
2022-11-14T10:29:13.637Z,5.40
2022-11-14T10:34:30.752Z,5.38
2022-11-14T10:39:44.848Z,5.36
2022-11-14T10:44:57.374Z,5.32
2022-11-14T10:50:16.975Z,5.34
2022-11-14T10:55:49.693Z,5.35
2022-11-14T11:00:53.642Z,5.32
2022-11-14T11:06:00.750Z,5.22
2022-11-14T11:11:31.230Z,5.17
2022-11-14T11:16:38.190Z,5.16
2022-11-14T11:21:53.361Z,5.20
2022-11-14T11:27:22.837Z,5.28
2022-11-14T11:32:30.545Z,5.33
2022-11-14T11:37:42.733Z,5.32
2022-11-14T11:43:36.653Z,5.27
2022-11-14T11:48:23.702Z,5.19
2022-11-14T11:53:38.682Z,5.23
2022-11-14T11:58:49.935Z,5.32
2022-11-14T12:03:57.804Z,5.40
2022-11-14T12:09:16.112Z,5.52
2022-11-14T12:14:51.748Z,5.61
2022-11-14T12:20:10.834Z,5.65
2022-11-14T12:25:56.830Z,5.69
2022-11-14T12:31:07.338Z,5.72
2022-11-14T12:36:15.432Z,5.75
2022-11-14T12:41:28.622Z,5.76
2022-11-14T12:47:15.964Z,5.76
2022-11-14T12:52:44.074Z,5.81
2022-11-14T12:58:03.520Z,5.82
2022-11-14T13:03:37.772Z,5.83
2022-11-14T13:09:05.356Z,5.82
2022-11-14T13:14:28.012Z,5.86
2022-11-14T13:19:53.328Z,5.90
2022-11-14T13:25:27.694Z,5.93
2022-11-14T13:31:20.795Z,5.97
2022-11-14T13:36:36.133Z,6.01
2022-11-14T13:42:19.431Z,6.05
2022-11-14T13:47:52.835Z,6.07
2022-11-14T13:53:00.683Z,6.04
2022-11-14T13:58:18.785Z,6.05
2022-11-14T14:03:38.575Z,6.09
2022-11-14T14:09:05.556Z,6.12
2022-11-14T14:14:32.433Z,6.12
2022-11-14T14:19:53.455Z,6.12
2022-11-14T14:25:11.454Z,6.14
2022-11-14T14:30:20.516Z,6.16
2022-11-14T14:35:31.857Z,6.17
2022-11-14T14:40:43.370Z,6.18
2022-11-14T14:45:55.397Z,6.16
2022-11-14T14:51:03.245Z,6.16
2022-11-14T14:56:21.335Z,6.20
2022-11-14T15:01:34.014Z,6.20
2022-11-14T15:06:41.740Z,6.16
2022-11-14T15:11:51.896Z,6.10
2022-11-14T15:17:00.345Z,6.06
2022-11-14T15:22:24.280Z,6.05
2022-11-14T15:27:32.977Z,6.03
2022-11-14T15:32:49.176Z,6.00
2022-11-14T15:43:55.337Z,5.94
2022-11-14T15:49:02.888Z,5.93
2022-11-14T15:54:24.653Z,5.95
2022-11-14T15:59:32.590Z,5.90
2022-11-14T16:04:45.996Z,5.91
2022-11-14T16:09:54.337Z,5.93
2022-11-14T16:14:59.994Z,5.94
2022-11-14T16:20:09.354Z,5.92
2022-11-14T16:25:20.240Z,5.91
2022-11-14T16:30:28.879Z,5.91
2022-11-14T16:35:36.834Z,5.93
2022-11-14T16:40:46.203Z,5.93
2022-11-14T16:45:53.460Z,5.89
2022-11-14T16:51:01.387Z,5.76
2022-11-14T16:56:11.842Z,5.71
2022-11-14T17:01:21.409Z,5.69
2022-11-14T17:06:29.135Z,5.72
2022-11-14T17:11:36.290Z,5.74
2022-11-14T17:16:42.118Z,5.76
2022-11-14T17:21:49.893Z,5.76
2022-11-14T17:26:57.539Z,5.76
2022-11-14T17:32:05.182Z,5.77
2022-11-14T17:37:12.367Z,5.79
2022-11-14T17:42:18.048Z,5.81
2022-11-14T17:47:25.441Z,5.82
2022-11-14T17:52:32.965Z,5.81
2022-11-14T17:57:39.971Z,5.81
2022-11-14T18:02:45.733Z,5.82
2022-11-14T18:07:52.839Z,5.80
2022-11-14T18:12:58.408Z,5.77
2022-11-14T18:18:06.034Z,5.75
2022-11-14T18:23:13.539Z,5.72
2022-11-14T18:28:20.847Z,5.71
2022-11-14T18:33:28.149Z,5.69
2022-11-14T18:38:36.033Z,5.68
2022-11-14T18:43:44.613Z,5.68
2022-11-14T18:48:57.395Z,5.67
2022-11-14T18:54:04.444Z,5.68
2022-11-14T18:59:11.841Z,5.67
2022-11-14T19:04:19.902Z,5.62
2022-11-14T19:09:27.333Z,5.60
2022-11-14T19:14:34.580Z,5.60
2022-11-14T19:19:39.994Z,5.62
2022-11-14T19:24:47.304Z,5.63
2022-11-14T19:29:54.458Z,5.63
2022-11-14T19:35:01.571Z,5.59
2022-11-14T19:40:11.297Z,5.59
2022-11-14T19:45:18.223Z,5.62
2022-11-14T19:50:25.948Z,5.60
2022-11-14T19:55:33.933Z,5.51
2022-11-14T20:00:41.471Z,5.50
2022-11-14T20:05:49.593Z,5.49
2022-11-14T20:11:01.353Z,5.49
2022-11-14T20:16:13.170Z,5.52
2022-11-14T20:21:22.061Z,5.55
2022-11-14T20:26:29.366Z,5.55
2022-11-14T20:31:36.394Z,5.54
2022-11-14T20:37:09.341Z,5.52
2022-11-14T20:42:10.524Z,5.50
2022-11-14T20:47:17.625Z,5.42
2022-11-14T20:52:24.778Z,5.33
2022-11-14T20:57:30.145Z,5.23
2022-11-14T21:02:37.711Z,5.15
2022-11-14T21:07:44.809Z,5.09
2022-11-14T21:13:12.485Z,5.09
2022-11-14T21:18:18.058Z,5.07
2022-11-14T21:23:25.315Z,5.08
2022-11-14T21:28:34.664Z,5.06
2022-11-14T21:33:42.327Z,5.07
2022-11-14T21:38:49.458Z,5.13
2022-11-14T21:43:56.453Z,5.17
2022-11-14T21:49:03.487Z,5.21
2022-11-14T21:54:12.397Z,5.19
2022-11-14T21:59:21.661Z,5.19
2022-11-14T22:04:29.084Z,5.23
2022-11-14T22:09:41.092Z,5.24
2022-11-14T22:14:50.918Z,5.24
2022-11-14T22:19:57.915Z,5.22
2022-11-14T22:25:03.486Z,5.21
2022-11-14T22:30:12.512Z,5.23
2022-11-14T22:35:19.940Z,5.25
2022-11-14T22:40:27.155Z,5.23
2022-11-14T22:45:34.452Z,5.21
2022-11-14T22:50:40.124Z,5.18
2022-11-14T22:55:51.226Z,5.17
2022-11-14T23:00:58.554Z,5.15
2022-11-14T23:06:11.487Z,5.13
2022-11-14T23:11:20.913Z,5.12
2022-11-14T23:16:30.575Z,5.10
2022-11-14T23:21:39.199Z,5.10
2022-11-14T23:26:46.924Z,5.09
2022-11-14T23:31:54.033Z,5.08
2022-11-14T23:37:01.449Z,5.06
2022-11-14T23:42:08.753Z,5.05
2022-11-14T23:47:15.959Z,5.04
2022-11-14T23:52:21.430Z,5.03
2022-11-14T23:57:28.632Z,5.02
